createdAt,value
2023-01-26T00:01:19.024Z,0.30
2023-01-26T00:03:46.693Z,0.30
2023-01-26T00:06:14.780Z,0.20
2023-01-26T00:08:42.497Z,0.20
2023-01-26T00:11:10.265Z,0.20
2023-01-26T00:13:37.180Z,0.20
2023-01-26T00:16:04.137Z,0.20
2023-01-26T00:18:31.247Z,0.20
2023-01-26T00:20:58.683Z,0.20
2023-01-26T00:23:26.081Z,0.20
2023-01-26T00:25:52.782Z,0.20
2023-01-26T00:28:19.548Z,0.20
2023-01-26T00:30:46.370Z,0.30
2023-01-26T00:33:13.676Z,0.30
2023-01-26T00:35:44.686Z,0.30
2023-01-26T00:38:12.209Z,0.30
2023-01-26T00:40:44.136Z,0.30
2023-01-26T00:43:10.879Z,0.30
2023-01-26T00:45:37.667Z,0.40
2023-01-26T00:48:08.445Z,0.30
2023-01-26T00:50:37.266Z,0.30
2023-01-26T00:53:04.358Z,0.30
2023-01-26T00:55:34.228Z,0.30
2023-01-26T00:58:02.005Z,0.30
2023-01-26T01:00:30.859Z,0.30
2023-01-26T01:02:58.222Z,0.30
2023-01-26T01:05:26.557Z,0.30
2023-01-26T01:07:53.376Z,0.30
2023-01-26T01:10:22.878Z,0.30
2023-01-26T01:13:15.390Z,0.30
2023-01-26T01:18:57.845Z,0.30
2023-01-26T01:21:57.202Z,0.40
2023-01-26T01:24:24.771Z,0.30
2023-01-26T01:26:51.942Z,0.40
2023-01-26T01:29:45.127Z,0.30
2023-01-26T01:32:15.526Z,0.30
2023-01-26T01:34:42.290Z,0.30
2023-01-26T01:37:10.377Z,0.30
2023-01-26T01:39:37.106Z,0.40
2023-01-26T01:42:04.125Z,0.30
2023-01-26T01:44:31.289Z,0.30
2023-01-26T01:47:03.577Z,0.30
2023-01-26T01:49:32.199Z,0.30
2023-01-26T01:51:58.997Z,0.30
2023-01-26T01:54:28.980Z,0.30
2023-01-26T01:57:00.936Z,0.30
2023-01-26T01:59:27.759Z,0.30
2023-01-26T02:01:55.845Z,0.30
2023-01-26T02:04:22.949Z,0.40
2023-01-26T02:06:51.659Z,0.40
2023-01-26T02:09:39.079Z,0.40
2023-01-26T02:12:07.268Z,0.40
2023-01-26T02:14:35.242Z,0.40
2023-01-26T02:17:02.062Z,0.40
2023-01-26T02:19:39.791Z,0.40
2023-01-26T02:22:10.915Z,0.40
2023-01-26T02:24:40.103Z,0.40
2023-01-26T02:27:07.353Z,0.50
2023-01-26T02:29:34.297Z,0.40
2023-01-26T02:32:01.101Z,0.40
2023-01-26T02:34:28.940Z,0.40
2023-01-26T02:36:56.757Z,0.40
2023-01-26T02:39:50.001Z,0.40
2023-01-26T02:42:37.918Z,0.30
2023-01-26T02:45:05.524Z,0.40
2023-01-26T02:47:32.447Z,0.40
2023-01-26T02:50:00.387Z,0.40
2023-01-26T02:52:29.172Z,0.40
2023-01-26T02:55:22.514Z,0.40
2023-01-26T02:57:50.466Z,0.40
2023-01-26T03:00:18.869Z,0.40
2023-01-26T03:02:46.519Z,0.40
2023-01-26T03:05:13.379Z,0.40
2023-01-26T03:07:40.888Z,0.50
2023-01-26T03:10:08.270Z,0.50
2023-01-26T03:12:35.083Z,0.50
2023-01-26T03:15:20.599Z,0.50
2023-01-26T03:17:47.546Z,0.50
2023-01-26T03:20:33.145Z,0.50
2023-01-26T03:23:18.845Z,0.50
2023-01-26T03:26:04.436Z,0.50
2023-01-26T03:28:34.013Z,0.50
2023-01-26T03:31:01.045Z,0.50
2023-01-26T03:33:30.430Z,0.50
2023-01-26T03:35:57.532Z,0.50
2023-01-26T03:38:24.410Z,0.50
2023-01-26T03:41:16.430Z,0.50
2023-01-26T03:44:05.017Z,0.50
2023-01-26T03:46:51.392Z,0.50
2023-01-26T03:49:37.689Z,0.50
2023-01-26T03:52:53.099Z,0.50
2023-01-26T03:55:38.512Z,0.60
2023-01-26T03:58:05.323Z,0.60
2023-01-26T04:00:32.054Z,0.60
2023-01-26T04:03:17.685Z,0.60
2023-01-26T04:06:16.366Z,0.60
2023-01-26T04:08:48.225Z,0.60
2023-01-26T04:11:14.974Z,0.60
2023-01-26T04:14:00.631Z,0.70
2023-01-26T04:16:50.147Z,0.60
2023-01-26T04:22:17.114Z,0.60
2023-01-26T04:24:47.401Z,0.70
2023-01-26T04:27:14.235Z,0.70
2023-01-26T04:29:42.562Z,0.60
2023-01-26T04:32:09.444Z,0.70
2023-01-26T04:34:36.383Z,0.70
2023-01-26T04:37:10.382Z,0.60
2023-01-26T04:39:44.539Z,0.70
2023-01-26T04:42:11.380Z,0.70
2023-01-26T04:44:38.319Z,0.70
2023-01-26T04:47:05.870Z,0.80
2023-01-26T04:49:33.331Z,0.70
2023-01-26T04:52:00.181Z,0.80
2023-01-26T04:54:28.589Z,0.80
2023-01-26T04:56:55.416Z,0.80
2023-01-26T04:59:22.357Z,0.80
2023-01-26T05:01:49.187Z,0.80
2023-01-26T05:04:16.030Z,0.80
2023-01-26T05:06:45.983Z,0.80
2023-01-26T05:09:12.870Z,0.80
2023-01-26T05:11:42.138Z,0.80
2023-01-26T05:14:44.209Z,0.80
2023-01-26T05:17:49.244Z,0.80
2023-01-26T05:20:54.914Z,0.80
2023-01-26T05:23:30.836Z,0.80
2023-01-26T05:26:23.612Z,0.80
2023-01-26T05:28:55.978Z,0.80
2023-01-26T05:31:23.004Z,0.80
2023-01-26T05:33:51.366Z,0.90
2023-01-26T05:36:21.970Z,0.80
2023-01-26T05:38:48.813Z,0.90
2023-01-26T05:41:19.418Z,0.80
2023-01-26T05:44:06.456Z,0.90
2023-01-26T05:46:40.956Z,0.90
2023-01-26T05:49:07.936Z,0.80
2023-01-26T05:51:34.755Z,0.80
2023-01-26T05:54:01.716Z,0.80
2023-01-26T05:56:28.750Z,0.80
2023-01-26T05:58:59.953Z,0.90
2023-01-26T06:01:26.884Z,0.90
2023-01-26T06:03:58.900Z,0.80
2023-01-26T06:06:28.823Z,0.90
2023-01-26T06:09:21.408Z,0.90
2023-01-26T06:12:03.713Z,0.90
2023-01-26T06:14:53.741Z,0.90
2023-01-26T06:17:20.618Z,0.90
2023-01-26T06:19:51.953Z,0.90
2023-01-26T06:22:18.869Z,0.90
2023-01-26T06:24:49.299Z,0.90
2023-01-26T06:27:27.056Z,0.90
2023-01-26T06:29:56.067Z,0.90
2023-01-26T06:32:22.993Z,0.90
2023-01-26T06:34:53.932Z,0.90
2023-01-26T06:37:21.759Z,0.90
2023-01-26T06:39:50.572Z,0.90
2023-01-26T06:42:17.489Z,1.00
2023-01-26T06:44:47.052Z,1.00
2023-01-26T06:47:14.946Z,1.00
2023-01-26T06:49:42.440Z,0.90
2023-01-26T06:52:36.298Z,1.00
2023-01-26T06:55:31.243Z,1.00
2023-01-26T06:58:23.381Z,1.00
2023-01-26T07:01:17.645Z,1.00
2023-01-26T07:03:45.481Z,1.00
2023-01-26T07:06:12.376Z,1.00
2023-01-26T07:08:39.479Z,1.00
2023-01-26T07:11:09.046Z,1.10
2023-01-26T07:13:36.105Z,1.00
2023-01-26T07:16:10.951Z,1.00
2023-01-26T07:18:37.890Z,1.10
2023-01-26T07:21:05.764Z,1.10
2023-01-26T07:23:34.778Z,1.10
2023-01-26T07:26:02.005Z,1.10
2023-01-26T07:28:30.579Z,1.10
2023-01-26T07:30:58.276Z,1.10
2023-01-26T07:33:25.098Z,1.10
2023-01-26T07:35:58.306Z,1.10
2023-01-26T07:38:25.464Z,1.10
2023-01-26T07:40:52.375Z,1.10
2023-01-26T07:43:19.216Z,1.10
2023-01-26T07:45:51.807Z,1.20
2023-01-26T07:48:19.193Z,1.20
2023-01-26T07:50:47.719Z,1.20
2023-01-26T07:53:19.456Z,1.20
2023-01-26T07:55:46.717Z,1.20
2023-01-26T07:58:13.568Z,1.20
2023-01-26T08:00:41.483Z,1.20
2023-01-26T08:03:08.371Z,1.20
2023-01-26T08:05:37.024Z,1.20
2023-01-26T08:08:04.803Z,1.20
2023-01-26T08:10:32.146Z,1.30
2023-01-26T08:13:00.619Z,1.30
2023-01-26T08:15:27.947Z,1.30
2023-01-26T08:17:55.404Z,1.40
2023-01-26T08:20:22.466Z,1.30
2023-01-26T08:22:49.370Z,1.30
2023-01-26T08:25:16.176Z,1.30
2023-01-26T08:27:42.994Z,1.40
2023-01-26T08:30:10.410Z,1.40
2023-01-26T08:32:37.786Z,1.30
2023-01-26T08:35:04.670Z,1.40
2023-01-26T08:37:31.481Z,1.40
2023-01-26T08:39:58.354Z,1.40
2023-01-26T08:42:25.388Z,1.40
2023-01-26T08:44:55.098Z,1.40
2023-01-26T08:47:21.983Z,1.40
2023-01-26T08:49:48.711Z,1.50
2023-01-26T08:52:16.636Z,1.50
2023-01-26T08:54:43.339Z,1.50
2023-01-26T08:57:10.167Z,1.50
2023-01-26T08:59:36.955Z,1.60
2023-01-26T09:02:03.858Z,1.60
2023-01-26T09:04:30.659Z,1.60
2023-01-26T09:06:57.427Z,1.60
2023-01-26T09:09:24.444Z,1.60
2023-01-26T09:11:51.175Z,1.60
2023-01-26T09:14:18.052Z,1.60
2023-01-26T09:16:44.909Z,1.60
2023-01-26T09:19:11.702Z,1.60
2023-01-26T09:21:38.526Z,1.60
2023-01-26T09:24:05.648Z,1.60
2023-01-26T09:26:32.527Z,1.60
2023-01-26T09:28:59.308Z,1.60
2023-01-26T09:31:26.206Z,1.70
2023-01-26T09:33:53.114Z,1.60
2023-01-26T09:36:19.917Z,1.70
2023-01-26T09:38:46.620Z,1.80
2023-01-26T09:41:13.355Z,1.70
2023-01-26T09:43:45.155Z,1.80
2023-01-26T09:46:15.019Z,1.70
2023-01-26T09:48:51.547Z,1.80
2023-01-26T09:51:36.437Z,1.90
2023-01-26T09:54:18.470Z,1.80
2023-01-26T09:56:45.703Z,1.90
2023-01-26T09:59:31.980Z,1.90
2023-01-26T10:02:17.037Z,1.90
2023-01-26T10:04:45.396Z,1.90
2023-01-26T10:07:13.900Z,1.90
2023-01-26T10:09:50.520Z,1.90
2023-01-26T10:12:17.277Z,1.90
2023-01-26T10:14:52.571Z,1.90
2023-01-26T10:17:28.904Z,1.90
2023-01-26T10:20:00.358Z,2.00
2023-01-26T10:22:40.275Z,2.00
2023-01-26T10:25:13.540Z,2.00
2023-01-26T10:27:40.357Z,2.00
2023-01-26T10:30:12.383Z,2.10
2023-01-26T10:32:40.135Z,2.10
2023-01-26T10:35:14.673Z,2.20
2023-01-26T10:37:41.400Z,2.20
2023-01-26T10:40:09.463Z,2.20
2023-01-26T10:42:36.891Z,2.20
2023-01-26T10:45:23.058Z,2.20
2023-01-26T10:48:19.401Z,2.20
2023-01-26T10:50:47.013Z,2.20
2023-01-26T10:53:19.113Z,2.30
2023-01-26T10:55:58.055Z,2.20
2023-01-26T10:58:38.954Z,2.30
2023-01-26T11:01:12.316Z,2.20
2023-01-26T11:03:39.475Z,2.30
2023-01-26T11:06:08.100Z,2.30
2023-01-26T11:08:36.333Z,2.40
2023-01-26T11:11:03.885Z,2.40
2023-01-26T11:13:30.703Z,2.40
2023-01-26T11:16:09.583Z,2.40
2023-01-26T11:18:51.627Z,2.40
2023-01-26T11:21:35.762Z,2.50
2023-01-26T11:24:21.169Z,2.50
2023-01-26T11:27:06.777Z,2.50
2023-01-26T11:29:39.665Z,2.50
2023-01-26T11:32:12.581Z,2.50
2023-01-26T11:34:39.334Z,2.60
2023-01-26T11:37:15.463Z,2.60
2023-01-26T11:39:51.883Z,2.60
2023-01-26T11:42:30.975Z,2.60
2023-01-26T11:45:16.623Z,2.60
2023-01-26T11:47:52.836Z,2.70
2023-01-26T11:50:23.076Z,2.70
2023-01-26T11:52:52.865Z,2.80
2023-01-26T11:55:28.184Z,2.80
2023-01-26T11:57:54.968Z,2.80
2023-01-26T12:00:30.168Z,2.80
2023-01-26T12:03:05.513Z,2.80
2023-01-26T12:05:46.164Z,2.80
2023-01-26T12:08:12.892Z,2.80
2023-01-26T12:10:43.071Z,2.80
2023-01-26T12:13:27.794Z,2.80
2023-01-26T12:15:56.878Z,2.80
2023-01-26T12:18:38.041Z,2.80
2023-01-26T12:21:12.630Z,2.90
2023-01-26T12:23:48.638Z,2.80
2023-01-26T12:26:24.316Z,2.90
2023-01-26T12:28:54.202Z,2.90
2023-01-26T12:31:27.039Z,2.90
2023-01-26T12:33:55.978Z,2.90
2023-01-26T12:36:28.908Z,2.90
2023-01-26T12:39:01.756Z,3.00
2023-01-26T12:41:32.950Z,3.00
2023-01-26T12:44:22.272Z,3.00
2023-01-26T12:46:54.643Z,3.00
2023-01-26T12:49:41.040Z,3.10
2023-01-26T12:52:11.835Z,3.10
2023-01-26T12:54:43.028Z,3.10
2023-01-26T12:57:13.760Z,3.20
2023-01-26T12:59:48.064Z,3.20
2023-01-26T13:02:15.594Z,3.20
2023-01-26T13:04:43.342Z,3.20
2023-01-26T13:07:45.693Z,3.20
2023-01-26T13:10:16.090Z,3.30
2023-01-26T13:12:47.623Z,3.30
2023-01-26T13:15:15.779Z,3.30
2023-01-26T13:17:49.404Z,3.30
2023-01-26T13:20:23.847Z,3.30
2023-01-26T13:22:51.408Z,3.30
2023-01-26T13:25:19.545Z,3.40
2023-01-26T13:27:55.654Z,3.40
2023-01-26T13:30:22.832Z,3.40
2023-01-26T13:32:58.137Z,3.40
2023-01-26T13:35:25.701Z,3.40
2023-01-26T13:37:52.426Z,3.50
2023-01-26T13:40:19.372Z,3.50
2023-01-26T13:42:58.117Z,3.50
2023-01-26T13:45:40.168Z,3.50
2023-01-26T13:48:27.269Z,3.50
2023-01-26T13:50:59.408Z,3.50
2023-01-26T13:53:29.332Z,3.50
2023-01-26T13:55:58.571Z,3.50
2023-01-26T13:58:26.333Z,3.50
2023-01-26T14:01:04.570Z,3.50
2023-01-26T14:03:31.851Z,3.60
2023-01-26T14:06:04.474Z,3.60
2023-01-26T14:08:32.131Z,3.60
2023-01-26T14:10:59.640Z,3.60
2023-01-26T14:13:32.935Z,3.60
2023-01-26T14:16:07.147Z,3.70
2023-01-26T14:18:34.566Z,3.70
2023-01-26T14:21:05.856Z,3.70
2023-01-26T14:23:36.855Z,3.70
2023-01-26T14:26:11.507Z,3.80
2023-01-26T14:28:41.630Z,3.80
2023-01-26T14:31:30.042Z,3.80
2023-01-26T14:33:58.983Z,3.90
2023-01-26T14:36:32.136Z,3.90
2023-01-26T14:39:01.240Z,3.90
2023-01-26T14:41:31.834Z,3.90
2023-01-26T14:44:04.050Z,3.90
2023-01-26T14:46:33.959Z,3.90
2023-01-26T14:49:10.090Z,3.90
2023-01-26T14:51:37.453Z,3.90
2023-01-26T14:54:05.929Z,4.00
2023-01-26T14:56:38.660Z,4.00
2023-01-26T14:59:06.706Z,4.00
2023-01-26T15:01:33.786Z,4.00
2023-01-26T15:04:06.615Z,4.10
2023-01-26T15:06:33.792Z,4.10
2023-01-26T15:09:25.245Z,4.10
2023-01-26T15:12:17.034Z,4.20
2023-01-26T15:14:48.086Z,4.10
2023-01-26T15:17:27.233Z,4.10
2023-01-26T15:19:54.069Z,4.20
2023-01-26T15:22:22.103Z,4.20
2023-01-26T15:24:59.856Z,4.20
2023-01-26T15:27:34.016Z,4.20
2023-01-26T15:30:08.094Z,4.20
2023-01-26T15:32:39.470Z,4.20
2023-01-26T15:35:07.404Z,4.20
2023-01-26T15:37:36.082Z,4.20
2023-01-26T15:40:04.216Z,4.20
2023-01-26T15:42:31.593Z,4.30
2023-01-26T15:44:58.465Z,4.20
2023-01-26T15:47:25.373Z,4.20
2023-01-26T15:49:52.285Z,4.20
2023-01-26T15:52:21.226Z,4.20
2023-01-26T15:54:48.111Z,4.10
2023-01-26T15:57:14.933Z,4.20
2023-01-26T15:59:41.713Z,4.20
2023-01-26T16:02:15.585Z,4.20
2023-01-26T16:04:42.799Z,4.10
2023-01-26T16:07:13.924Z,4.00
2023-01-26T16:09:41.151Z,4.00
2023-01-26T16:12:13.022Z,4.00
2023-01-26T16:14:39.914Z,4.00
2023-01-26T16:17:12.472Z,4.00
2023-01-26T16:19:39.198Z,4.00
2023-01-26T16:22:05.928Z,4.00
2023-01-26T16:24:32.759Z,4.00
2023-01-26T16:26:59.579Z,4.00
2023-01-26T16:29:26.354Z,4.00
2023-01-26T16:31:53.287Z,4.00
2023-01-26T16:34:20.043Z,4.00
2023-01-26T16:36:46.766Z,4.10
2023-01-26T16:39:13.610Z,4.10
2023-01-26T16:41:40.360Z,4.00
2023-01-26T16:44:12.274Z,4.00
2023-01-26T16:46:38.971Z,4.10
2023-01-26T16:49:05.699Z,4.10
2023-01-26T16:51:42.537Z,4.00
2023-01-26T16:54:09.340Z,4.00
2023-01-26T16:56:36.163Z,4.10
2023-01-26T16:59:04.986Z,4.00
2023-01-26T17:01:36.957Z,4.10
2023-01-26T17:04:04.247Z,4.10
2023-01-26T17:06:31.079Z,4.10
2023-01-26T17:08:57.924Z,4.10
2023-01-26T17:11:27.786Z,4.10
2023-01-26T17:13:59.208Z,4.10
2023-01-26T17:16:32.866Z,4.10
2023-01-26T17:18:59.994Z,4.10
2023-01-26T17:21:26.819Z,4.10
2023-01-26T17:23:59.120Z,4.10
2023-01-26T17:26:28.610Z,4.10
2023-01-26T17:28:55.765Z,4.00
2023-01-26T17:31:23.239Z,4.00
2023-01-26T17:33:50.268Z,4.00
2023-01-26T17:36:18.089Z,4.10
2023-01-26T17:38:45.120Z,4.00
2023-01-26T17:41:11.821Z,4.00
2023-01-26T17:43:38.626Z,4.00
2023-01-26T17:46:10.193Z,4.00
2023-01-26T17:48:39.936Z,4.00
2023-01-26T17:51:10.910Z,3.90
2023-01-26T17:53:38.406Z,4.00
2023-01-26T17:56:07.610Z,4.00
2023-01-26T17:58:35.623Z,4.00
2023-01-26T18:01:02.556Z,4.00
2023-01-26T18:03:29.421Z,4.10
2023-01-26T18:05:57.027Z,4.10
2023-01-26T18:08:24.070Z,4.10
2023-01-26T18:10:56.596Z,4.00
2023-01-26T18:13:23.328Z,4.10
2023-01-26T18:15:50.087Z,4.10
2023-01-26T18:18:16.790Z,4.20
2023-01-26T18:20:43.506Z,4.20
2023-01-26T18:23:10.253Z,4.20
2023-01-26T18:25:37.009Z,4.20
2023-01-26T18:28:03.914Z,4.30
2023-01-26T18:30:30.772Z,4.20
2023-01-26T18:32:57.507Z,4.20
2023-01-26T18:35:24.275Z,4.20
2023-01-26T18:37:51.000Z,4.30
2023-01-26T18:40:18.071Z,4.30
2023-01-26T18:42:44.898Z,4.30
2023-01-26T18:45:12.130Z,4.30
2023-01-26T18:47:39.012Z,4.30
2023-01-26T18:50:06.268Z,4.30
2023-01-26T18:52:33.150Z,4.30
2023-01-26T18:54:59.949Z,4.30
2023-01-26T18:57:26.682Z,4.30
2023-01-26T18:59:57.627Z,4.30
2023-01-26T19:02:24.982Z,4.30
2023-01-26T19:04:53.603Z,4.30
2023-01-26T19:07:20.406Z,4.30
2023-01-26T19:09:47.297Z,4.30
2023-01-26T19:12:14.051Z,4.30
2023-01-26T19:14:40.964Z,4.30
2023-01-26T19:17:07.690Z,4.30
2023-01-26T19:19:34.530Z,4.20
2023-01-26T19:22:01.304Z,4.30
2023-01-26T19:24:28.046Z,4.30
2023-01-26T19:26:54.825Z,4.30
2023-01-26T19:29:21.547Z,4.30
2023-01-26T19:31:48.372Z,4.30
2023-01-26T19:34:17.050Z,4.30
2023-01-26T19:36:44.203Z,4.30
2023-01-26T19:39:14.006Z,4.30
2023-01-26T19:41:40.898Z,4.30
2023-01-26T19:44:07.765Z,4.30
2023-01-26T19:46:34.500Z,4.30
2023-01-26T19:49:01.429Z,4.30
2023-01-26T19:51:29.267Z,4.30
2023-01-26T19:53:57.835Z,4.30
2023-01-26T19:56:31.969Z,4.30
2023-01-26T19:59:00.457Z,4.30
2023-01-26T20:01:28.315Z,4.30
2023-01-26T20:03:58.691Z,4.30
2023-01-26T20:06:26.902Z,4.40
2023-01-26T20:08:54.573Z,4.30
2023-01-26T20:11:24.969Z,4.30
2023-01-26T20:13:55.656Z,4.30
2023-01-26T20:16:22.831Z,4.20
2023-01-26T20:18:50.187Z,4.20
2023-01-26T20:21:17.009Z,4.20
2023-01-26T20:23:53.999Z,4.20
2023-01-26T20:26:42.596Z,4.20
2023-01-26T20:29:19.440Z,4.20
2023-01-26T20:31:47.058Z,4.30
2023-01-26T20:34:14.860Z,4.30
2023-01-26T20:36:43.021Z,4.30
2023-01-26T20:39:12.955Z,4.30
2023-01-26T20:41:39.801Z,4.40
2023-01-26T20:44:07.346Z,4.40
2023-01-26T20:46:36.514Z,4.40
2023-01-26T20:49:03.887Z,4.50
2023-01-26T20:51:33.850Z,4.50
2023-01-26T20:54:00.795Z,4.50
2023-01-26T20:56:27.656Z,4.50
2023-01-26T20:58:57.476Z,4.50
2023-01-26T21:01:24.942Z,4.50
2023-01-26T21:03:54.890Z,4.50
2023-01-26T21:06:23.977Z,4.50
2023-01-26T21:08:56.047Z,4.50
2023-01-26T21:11:25.584Z,4.50
2023-01-26T21:13:52.907Z,4.50
2023-01-26T21:16:19.826Z,4.50
2023-01-26T21:19:10.224Z,4.50
2023-01-26T21:21:34.923Z,4.50
2023-01-26T21:24:01.702Z,4.50
2023-01-26T21:26:41.107Z,4.50
2023-01-26T21:32:33.450Z,4.50
2023-01-26T21:35:00.406Z,4.50
2023-01-26T21:37:30.509Z,4.60
2023-01-26T21:39:57.207Z,4.60
2023-01-26T21:42:24.948Z,4.70
2023-01-26T21:45:14.909Z,4.70
2023-01-26T21:47:41.849Z,4.70
2023-01-26T21:50:09.001Z,4.70
2023-01-26T21:53:03.616Z,4.70
2023-01-26T21:55:30.853Z,4.70
2023-01-26T21:58:17.890Z,4.70
2023-01-26T22:01:12.164Z,4.70
2023-01-26T22:03:38.888Z,4.70
2023-01-26T22:06:06.281Z,4.70
2023-01-26T22:08:33.304Z,4.70
2023-01-26T22:11:02.227Z,4.70
2023-01-26T22:13:55.914Z,4.70
2023-01-26T22:16:26.202Z,4.70
2023-01-26T22:18:53.196Z,4.70
2023-01-26T22:21:20.699Z,4.80
2023-01-26T22:24:00.387Z,4.80
2023-01-26T22:26:30.472Z,4.80
2023-01-26T22:29:08.177Z,4.80
2023-01-26T22:31:34.906Z,4.80
2023-01-26T22:34:01.841Z,4.80
2023-01-26T22:36:34.265Z,4.80
2023-01-26T22:39:16.025Z,4.80
2023-01-26T22:41:43.042Z,4.80
2023-01-26T22:44:12.660Z,4.80
2023-01-26T22:46:39.767Z,4.80
2023-01-26T22:49:06.651Z,4.80
2023-01-26T22:51:37.327Z,4.80
2023-01-26T22:54:08.590Z,4.80
2023-01-26T22:56:53.539Z,4.80
2023-01-26T22:59:20.883Z,4.80
2023-01-26T23:01:49.569Z,4.80
2023-01-26T23:04:27.578Z,4.90
2023-01-26T23:06:54.686Z,4.90
2023-01-26T23:09:21.560Z,4.90
2023-01-26T23:12:02.152Z,4.80
2023-01-26T23:14:55.903Z,4.80
2023-01-26T23:17:23.406Z,4.80
2023-01-26T23:20:02.830Z,4.90
2023-01-26T23:23:31.799Z,4.80
2023-01-26T23:26:14.618Z,4.80
2023-01-26T23:28:42.374Z,4.90
2023-01-26T23:31:11.699Z,4.90
2023-01-26T23:33:38.916Z,4.90
2023-01-26T23:36:06.936Z,4.90
2023-01-26T23:38:33.994Z,4.90
2023-01-26T23:41:00.831Z,4.90
2023-01-26T23:43:27.883Z,4.90
2023-01-26T23:45:56.542Z,5.00
2023-01-26T23:48:24.104Z,4.90
2023-01-26T23:51:01.298Z,5.00
2023-01-26T23:53:33.552Z,5.00
2023-01-26T23:56:05.276Z,4.90
2023-01-26T23:58:32.319Z,4.90
